map of KMWK home
Great Circle Mapper logo
KMWK - Airport
Location
City:  Mount Airy, North Carolina, United States
Name:Mount Airy/Surry County Airport
ICAO:KMWK
FAA:MWK

Details
Type:Airport (Airfield)
Use:Public/Civil
Latitude:3627'35"N (36.459722)
Longitude:8033'11"W (-80.552971)
Datum:WGS 1984
Elevation:1249 ft (381 m)
Runways:1
Longest:4301 × 75 ft (1311 × 23 m), paved

Time
Time Zone:UTC-5 (DST-4)
Local Time:

Weather
METAR:KMWK 240015Z AUTO 35003KT 10SM CLR 17/M06 A2993 RMK AO2 T01701064

Related Locations
Nearby:
Farthest:MGV: 11542 mi / 18574 km
Margaret River, WA, AU

Find:

   beyond  
but within

Other Information
Maps:
NOTAMs:
Links:
Sources:

  
flag of United States
flag of North Carolina
  

Sectional Chart

Flight Planning
at skyvector.com

Satellite Image

Google Maps Satellite View

 

Copyright © 2004-2014 Karl L. Swartz. All rights reserved.
The Great Circle Mapper name and logo are trademarks of the Great Circle Mapper.
All other trademarks mentioned herein belong to their respective owners.
Please see credits for attibutions and further copyright information.

  Follow gcmap on Facebook Follow gcmap on Twitter

hCard Microformat

Geo Microformat